createdAt,value
2017-01-14T00:00:40.813Z,1001.8
2017-01-14T00:01:49.466Z,1001.88
2017-01-14T00:02:58.125Z,1001.98
2017-01-14T00:04:06.786Z,1001.89
2017-01-14T00:05:15.445Z,1001.94
2017-01-14T00:06:24.111Z,1001.95
2017-01-14T00:07:32.776Z,1002
2017-01-14T00:08:41.436Z,1002
2017-01-14T00:09:50.097Z,1002.04
2017-01-14T00:10:58.762Z,1002.1
2017-01-14T00:12:07.419Z,1002.02
2017-01-14T00:13:16.083Z,1002.11
2017-01-14T00:14:24.751Z,1002.04
2017-01-14T00:15:33.411Z,1002.12
2017-01-14T00:16:42.070Z,1002.14
2017-01-14T00:17:50.730Z,1002.11
2017-01-14T00:18:59.388Z,1002.14
2017-01-14T00:20:08.049Z,1002.16
2017-01-14T00:21:16.715Z,1002.15
2017-01-14T00:22:25.378Z,1002.11
2017-01-14T00:23:34.035Z,1002.14
2017-01-14T00:24:42.693Z,1002.21
2017-01-14T00:25:51.354Z,1002.15
2017-01-14T00:27:00.018Z,1002.22
2017-01-14T00:28:08.680Z,1002.17
2017-01-14T00:29:17.337Z,1002.13
2017-01-14T00:30:26.004Z,1002.22
2017-01-14T00:31:34.671Z,1002.2
2017-01-14T00:32:43.330Z,1002.17
2017-01-14T00:33:51.997Z,1002.27
2017-01-14T00:35:00.655Z,1002.24
2017-01-14T00:36:09.339Z,1002.31
2017-01-14T00:37:17.997Z,1002.36
2017-01-14T00:38:26.664Z,1002.35
2017-01-14T00:39:35.354Z,1002.32
2017-01-14T00:40:44.019Z,1002.36
2017-01-14T00:41:52.706Z,1002.41
2017-01-14T00:43:01.361Z,1002.37
2017-01-14T00:44:10.021Z,1002.4
2017-01-14T00:45:18.686Z,1002.41
2017-01-14T00:46:27.345Z,1002.44
2017-01-14T00:47:36.006Z,1002.44
2017-01-14T00:48:44.666Z,1002.47
2017-01-14T00:49:53.327Z,1002.45
2017-01-14T00:51:01.985Z,1002.58
2017-01-14T00:52:10.645Z,1002.51
2017-01-14T00:53:19.308Z,1002.53
2017-01-14T00:54:27.973Z,1002.55
2017-01-14T00:55:36.664Z,1002.58
2017-01-14T00:56:45.323Z,1002.53
2017-01-14T00:57:53.986Z,1002.6
2017-01-14T00:59:02.644Z,1002.57
2017-01-14T01:00:11.304Z,1002.58
2017-01-14T01:01:19.961Z,1002.62
2017-01-14T01:02:28.620Z,1002.64
2017-01-14T01:03:37.280Z,1002.67
2017-01-14T01:04:45.939Z,1002.68
2017-01-14T01:05:54.594Z,1002.75
2017-01-14T01:07:03.257Z,1002.71
2017-01-14T01:08:11.922Z,1002.75
2017-01-14T01:09:20.588Z,1002.8
2017-01-14T01:10:29.254Z,1002.88
2017-01-14T01:11:37.914Z,1002.83
2017-01-14T01:12:46.579Z,1002.86
2017-01-14T01:13:55.257Z,1002.84
2017-01-14T01:15:03.923Z,1002.96
2017-01-14T01:16:12.578Z,1003.01
2017-01-14T01:17:21.233Z,1002.9
2017-01-14T01:18:29.900Z,1003
2017-01-14T01:19:38.559Z,1003.09
2017-01-14T01:20:47.216Z,1003.07
2017-01-14T01:21:55.879Z,1003
2017-01-14T01:23:04.540Z,1003.13
2017-01-14T01:24:13.203Z,1003.19
2017-01-14T01:25:21.863Z,1003.16
2017-01-14T01:26:30.525Z,1003.24
2017-01-14T01:27:39.217Z,1003.19
2017-01-14T01:28:47.873Z,1003.29
2017-01-14T01:29:56.533Z,1003.34
2017-01-14T01:31:05.576Z,1003.31
2017-01-14T01:32:14.233Z,1003.38
2017-01-14T01:33:22.887Z,1003.37
2017-01-14T01:34:31.546Z,1003.4
2017-01-14T01:35:40.219Z,1003.4
2017-01-14T01:36:48.889Z,1003.5
2017-01-14T01:37:57.553Z,1003.47
2017-01-14T01:39:06.214Z,1003.51
2017-01-14T01:40:14.876Z,1003.57
2017-01-14T01:41:23.541Z,1003.56
2017-01-14T01:42:32.198Z,1003.58
2017-01-14T01:43:40.860Z,1003.57
2017-01-14T01:44:49.518Z,1003.63
2017-01-14T01:45:58.173Z,1003.64
2017-01-14T01:47:06.835Z,1003.62
2017-01-14T01:48:15.495Z,1003.62
2017-01-14T01:49:24.157Z,1003.69
2017-01-14T01:50:32.817Z,1003.69
2017-01-14T01:51:41.476Z,1003.7
2017-01-14T01:52:50.141Z,1003.74
2017-01-14T01:53:58.799Z,1003.72
2017-01-14T01:55:07.458Z,1003.77
2017-01-14T01:56:16.119Z,1003.8
2017-01-14T01:57:24.780Z,1003.81
2017-01-14T01:58:33.442Z,1003.89
2017-01-14T01:59:42.101Z,1003.88
2017-01-14T02:00:50.767Z,1003.93
2017-01-14T02:01:59.433Z,1003.91
2017-01-14T02:03:08.102Z,1003.94
2017-01-14T02:04:16.762Z,1003.96
2017-01-14T02:05:25.426Z,1003.98
2017-01-14T02:06:34.095Z,1003.92
2017-01-14T02:07:42.785Z,1003.95
2017-01-14T02:08:51.471Z,1003.96
2017-01-14T02:10:00.140Z,1003.93
2017-01-14T02:11:08.804Z,1004.02
2017-01-14T02:12:17.476Z,1004.03
2017-01-14T02:13:26.137Z,1004
2017-01-14T02:14:34.805Z,1004.01
2017-01-14T02:15:43.467Z,1004.03
2017-01-14T02:16:52.124Z,1004.03
2017-01-14T02:18:00.785Z,1004.03
2017-01-14T02:19:09.448Z,1004.03
2017-01-14T02:20:18.118Z,1004.08
2017-01-14T02:21:26.781Z,1004.05
2017-01-14T02:22:35.440Z,1004.08
2017-01-14T02:23:44.102Z,1004.1
2017-01-14T02:24:52.764Z,1004.12
2017-01-14T02:26:01.421Z,1004.11
2017-01-14T02:27:10.082Z,1004.09
2017-01-14T02:28:18.771Z,1004.19
2017-01-14T02:29:27.435Z,1004.11
2017-01-14T02:30:36.093Z,1004.2
2017-01-14T02:31:44.750Z,1004.13
2017-01-14T02:32:53.411Z,1004.18
2017-01-14T02:34:02.071Z,1004.2
2017-01-14T02:35:10.724Z,1004.18
2017-01-14T02:36:19.377Z,1004.22
2017-01-14T02:37:28.048Z,1004.13
2017-01-14T02:38:36.712Z,1004.2
2017-01-14T02:39:45.370Z,1004.19
2017-01-14T02:40:54.030Z,1004.23
2017-01-14T02:42:02.697Z,1004.25
2017-01-14T02:43:11.353Z,1004.27
2017-01-14T02:44:20.010Z,1004.31
2017-01-14T02:45:28.675Z,1004.33
2017-01-14T02:46:37.338Z,1004.39
2017-01-14T02:47:45.992Z,1004.38
2017-01-14T02:48:54.649Z,1004.4
2017-01-14T02:50:03.312Z,1004.43
2017-01-14T02:51:12.589Z,1004.38
2017-01-14T02:52:21.262Z,1004.41
2017-01-14T02:53:30.169Z,1004.42
2017-01-14T02:54:38.824Z,1004.41
2017-01-14T02:55:47.487Z,1004.46
2017-01-14T02:56:56.146Z,1004.41
2017-01-14T02:58:04.803Z,1004.39
2017-01-14T02:59:13.465Z,1004.41
2017-01-14T03:00:22.130Z,1004.51
2017-01-14T03:01:30.788Z,1004.48
2017-01-14T03:02:39.447Z,1004.46
2017-01-14T03:03:48.108Z,1004.46
2017-01-14T03:04:56.763Z,1004.43
2017-01-14T03:06:05.423Z,1004.41
2017-01-14T03:07:14.082Z,1004.48
2017-01-14T03:08:22.743Z,1004.52
2017-01-14T03:09:31.406Z,1004.55
2017-01-14T03:10:40.062Z,1004.57
2017-01-14T03:11:48.745Z,1004.65
2017-01-14T03:12:57.405Z,1004.65
2017-01-14T03:14:06.062Z,1004.65
2017-01-14T03:15:14.717Z,1004.65
2017-01-14T03:16:23.373Z,1004.62
2017-01-14T03:17:32.031Z,1004.66
2017-01-14T03:18:40.697Z,1004.7
2017-01-14T03:19:49.356Z,1004.75
2017-01-14T03:20:58.010Z,1004.67
2017-01-14T03:22:06.668Z,1004.7
2017-01-14T03:23:15.323Z,1004.76
2017-01-14T03:24:23.976Z,1004.76
2017-01-14T03:25:32.636Z,1004.77
2017-01-14T03:26:41.292Z,1004.79
2017-01-14T03:27:49.953Z,1004.82
2017-01-14T03:28:58.607Z,1004.82
2017-01-14T03:30:07.270Z,1004.8
2017-01-14T03:31:15.928Z,1004.84
2017-01-14T03:32:24.585Z,1004.86
2017-01-14T03:33:33.242Z,1004.85
2017-01-14T03:34:41.934Z,1004.87
2017-01-14T03:35:50.589Z,1004.83
2017-01-14T03:36:59.242Z,1004.8
2017-01-14T03:38:07.904Z,1004.83
2017-01-14T03:39:16.573Z,1004.86
2017-01-14T03:40:25.236Z,1004.91
2017-01-14T03:41:33.892Z,1004.93
2017-01-14T03:42:42.547Z,1004.92
2017-01-14T03:43:51.202Z,1005.01
2017-01-14T03:44:59.857Z,1005.01
2017-01-14T03:46:08.509Z,1005.01
2017-01-14T03:47:17.167Z,1004.99
2017-01-14T03:48:25.824Z,1005.01
2017-01-14T03:49:34.487Z,1004.97
2017-01-14T03:50:43.153Z,1005.03
2017-01-14T03:51:51.812Z,1005.03
2017-01-14T03:53:00.472Z,1005.01
2017-01-14T03:54:09.129Z,1005.01
2017-01-14T03:55:17.791Z,1004.99
2017-01-14T03:56:26.455Z,1005.09
2017-01-14T03:57:35.119Z,1005.12
2017-01-14T03:58:43.776Z,1005.12
2017-01-14T03:59:52.436Z,1005.15
2017-01-14T04:01:01.103Z,1005.13
2017-01-14T04:02:09.761Z,1005.19
2017-01-14T04:03:18.422Z,1005.15
2017-01-14T04:04:27.085Z,1005.2
2017-01-14T04:05:35.749Z,1005.28
2017-01-14T04:06:44.413Z,1005.25
2017-01-14T04:07:53.076Z,1005.2
2017-01-14T04:09:01.742Z,1005.26
2017-01-14T04:10:10.406Z,1005.27
2017-01-14T04:11:19.066Z,1005.25
2017-01-14T04:12:27.723Z,1005.32
2017-01-14T04:13:36.385Z,1005.33
2017-01-14T04:14:45.042Z,1005.35
2017-01-14T04:15:53.706Z,1005.31
2017-01-14T04:17:02.366Z,1005.34
2017-01-14T04:18:11.023Z,1005.37
2017-01-14T04:19:19.676Z,1005.46
2017-01-14T04:20:28.337Z,1005.47
2017-01-14T04:21:37.001Z,1005.44
2017-01-14T04:22:45.663Z,1005.46
2017-01-14T04:23:54.328Z,1005.56
2017-01-14T04:25:02.990Z,1005.51
2017-01-14T04:26:11.648Z,1005.47
2017-01-14T04:27:20.304Z,1005.51
2017-01-14T04:28:28.967Z,1005.49
2017-01-14T04:29:37.649Z,1005.47
2017-01-14T04:30:46.311Z,1005.49
2017-01-14T04:31:54.973Z,1005.51
2017-01-14T04:33:03.634Z,1005.49
2017-01-14T04:34:12.292Z,1005.5
2017-01-14T04:35:20.951Z,1005.5
2017-01-14T04:36:29.615Z,1005.51
2017-01-14T04:37:38.297Z,1005.6
2017-01-14T04:38:46.959Z,1005.6
2017-01-14T04:39:55.620Z,1005.61
2017-01-14T04:41:04.277Z,1005.66
2017-01-14T04:42:12.942Z,1005.64
2017-01-14T04:43:21.599Z,1005.65
2017-01-14T04:44:30.282Z,1005.68
2017-01-14T04:45:38.941Z,1005.72
2017-01-14T04:46:47.603Z,1005.65
2017-01-14T04:47:56.266Z,1005.73
2017-01-14T04:49:04.932Z,1005.75
2017-01-14T04:50:13.591Z,1005.78
2017-01-14T04:51:22.247Z,1005.75
2017-01-14T04:52:30.933Z,1005.78
2017-01-14T04:53:39.592Z,1005.76
2017-01-14T04:54:48.257Z,1005.8
2017-01-14T04:55:56.914Z,1005.78
2017-01-14T04:57:05.572Z,1005.81
2017-01-14T04:58:14.227Z,1005.81
2017-01-14T04:59:22.889Z,1005.91
2017-01-14T05:00:31.547Z,1005.98
2017-01-14T05:01:40.208Z,1006.02
2017-01-14T05:02:48.867Z,1006.03
2017-01-14T05:03:57.524Z,1006.08
2017-01-14T05:05:06.177Z,1006.09
2017-01-14T05:06:14.829Z,1006.14
2017-01-14T05:07:23.486Z,1006.14
2017-01-14T05:08:32.141Z,1006.18
2017-01-14T05:09:40.801Z,1006.17
2017-01-14T05:10:49.458Z,1006.26
2017-01-14T05:11:58.113Z,1006.27
2017-01-14T05:13:06.772Z,1006.27
2017-01-14T05:14:15.432Z,1006.29
2017-01-14T05:15:24.090Z,1006.35
2017-01-14T05:16:32.750Z,1006.33
2017-01-14T05:17:41.400Z,1006.44
2017-01-14T05:18:50.055Z,1006.44
2017-01-14T05:19:58.710Z,1006.41
2017-01-14T05:21:07.752Z,1006.48
2017-01-14T05:22:16.407Z,1006.46
2017-01-14T05:23:25.066Z,1006.54
2017-01-14T05:24:33.727Z,1006.52
2017-01-14T05:25:42.386Z,1006.5
2017-01-14T05:26:51.047Z,1006.46
2017-01-14T05:27:59.703Z,1006.38
2017-01-14T05:29:08.354Z,1006.46
2017-01-14T05:30:17.012Z,1006.42
2017-01-14T05:31:25.672Z,1006.41
2017-01-14T05:32:34.325Z,1006.41
2017-01-14T05:33:42.983Z,1006.42
2017-01-14T05:34:51.641Z,1006.46
2017-01-14T05:36:00.296Z,1006.49
2017-01-14T05:37:08.950Z,1006.45
2017-01-14T05:38:17.610Z,1006.51
2017-01-14T05:39:26.268Z,1006.48
2017-01-14T05:40:34.917Z,1006.53
2017-01-14T05:41:43.571Z,1006.57
2017-01-14T05:42:52.224Z,1006.6
2017-01-14T05:44:00.882Z,1006.63
2017-01-14T05:45:09.535Z,1006.67
2017-01-14T05:46:18.224Z,1006.65
2017-01-14T05:47:26.886Z,1006.72
2017-01-14T05:48:35.547Z,1006.67
2017-01-14T05:49:44.202Z,1006.65
2017-01-14T05:50:52.857Z,1006.72
2017-01-14T05:52:01.523Z,1006.74
2017-01-14T05:53:10.180Z,1006.69
2017-01-14T05:54:18.841Z,1006.77
2017-01-14T05:55:27.496Z,1006.71
2017-01-14T05:56:36.155Z,1006.78
2017-01-14T05:57:44.807Z,1006.84
2017-01-14T05:58:53.465Z,1006.82
2017-01-14T06:00:02.125Z,1006.94
2017-01-14T06:01:10.782Z,1006.9
2017-01-14T06:02:19.438Z,1007
2017-01-14T06:03:28.089Z,1006.99
2017-01-14T06:04:36.763Z,1007
2017-01-14T06:05:45.421Z,1007.05
2017-01-14T06:06:54.082Z,1006.99
2017-01-14T06:08:02.772Z,1007.07
2017-01-14T06:09:11.429Z,1007.07
2017-01-14T06:10:20.086Z,1007.03
2017-01-14T06:11:28.772Z,1007.09
2017-01-14T06:12:37.429Z,1007.13
2017-01-14T06:13:46.091Z,1007.17
2017-01-14T06:14:54.745Z,1007.11
2017-01-14T06:16:03.402Z,1007.19
2017-01-14T06:17:12.059Z,1007.17
2017-01-14T06:18:20.720Z,1007.24
2017-01-14T06:19:29.374Z,1007.28
2017-01-14T06:20:38.030Z,1007.35
2017-01-14T06:21:46.693Z,1007.38
2017-01-14T06:22:55.347Z,1007.3
2017-01-14T06:24:04.015Z,1007.37
2017-01-14T06:25:12.676Z,1007.35
2017-01-14T06:26:21.356Z,1007.36
2017-01-14T06:27:30.009Z,1007.35
2017-01-14T06:28:38.671Z,1007.45
2017-01-14T06:29:47.328Z,1007.46
2017-01-14T06:30:55.985Z,1007.44
2017-01-14T06:32:04.642Z,1007.49
2017-01-14T06:33:13.299Z,1007.41
2017-01-14T06:34:21.958Z,1007.54
2017-01-14T06:35:30.618Z,1007.49
2017-01-14T06:36:39.298Z,1007.52
2017-01-14T06:37:47.950Z,1007.49
2017-01-14T06:38:56.603Z,1007.47
2017-01-14T06:40:05.263Z,1007.51
2017-01-14T06:41:13.921Z,1007.57
2017-01-14T06:42:22.580Z,1007.67
2017-01-14T06:43:31.235Z,1007.64
2017-01-14T06:44:39.893Z,1007.71
2017-01-14T06:45:48.557Z,1007.72
2017-01-14T06:46:57.211Z,1007.77
2017-01-14T06:48:05.871Z,1007.77
2017-01-14T06:49:14.535Z,1007.79
2017-01-14T06:50:23.219Z,1007.8
2017-01-14T06:51:31.883Z,1007.76
2017-01-14T06:52:40.538Z,1007.77
2017-01-14T06:53:49.198Z,1007.78
2017-01-14T06:54:57.860Z,1007.77
2017-01-14T06:56:06.518Z,1007.73
2017-01-14T06:57:15.170Z,1007.73
2017-01-14T06:58:23.828Z,1007.84
2017-01-14T06:59:32.492Z,1007.85
2017-01-14T07:00:41.157Z,1007.86
2017-01-14T07:01:49.811Z,1007.91
2017-01-14T07:02:58.469Z,1007.93
2017-01-14T07:04:07.126Z,1007.95
2017-01-14T07:05:15.796Z,1008.03
2017-01-14T07:06:24.459Z,1007.98
2017-01-14T07:07:33.142Z,1008.09
2017-01-14T07:08:41.799Z,1008.07
2017-01-14T07:09:50.454Z,1008.11
2017-01-14T07:10:59.112Z,1008.13
2017-01-14T07:12:07.770Z,1008.17
2017-01-14T07:13:16.437Z,1008.17
2017-01-14T07:14:25.094Z,1008.23
2017-01-14T07:15:33.785Z,1008.2
2017-01-14T07:16:42.439Z,1008.18
2017-01-14T07:17:51.100Z,1008.2
2017-01-14T07:18:59.761Z,1008.25
2017-01-14T07:20:08.420Z,1008.21
2017-01-14T07:21:17.079Z,1008.27
2017-01-14T07:22:25.734Z,1008.31
2017-01-14T07:23:34.774Z,1008.27
2017-01-14T07:24:43.434Z,1008.23
2017-01-14T07:25:52.111Z,1008.26
2017-01-14T07:27:00.767Z,1008.29
2017-01-14T07:28:09.421Z,1008.29
2017-01-14T07:29:18.077Z,1008.28
2017-01-14T07:30:26.741Z,1008.28
2017-01-14T07:31:35.398Z,1008.28
2017-01-14T07:32:44.438Z,1008.31
2017-01-14T07:33:53.098Z,1008.33
2017-01-14T07:35:01.758Z,1008.43
2017-01-14T07:36:10.414Z,1008.46
2017-01-14T07:37:19.070Z,1008.42
2017-01-14T07:38:27.726Z,1008.34
2017-01-14T07:39:36.385Z,1008.39
2017-01-14T07:40:45.042Z,1008.46
2017-01-14T07:41:53.700Z,1008.49
2017-01-14T07:43:02.362Z,1008.54
2017-01-14T07:44:11.014Z,1008.58
2017-01-14T07:45:19.673Z,1008.64
2017-01-14T07:46:28.326Z,1008.62
2017-01-14T07:47:36.989Z,1008.62
2017-01-14T07:48:45.645Z,1008.65
2017-01-14T07:49:54.328Z,1008.69
2017-01-14T07:51:02.992Z,1008.7
2017-01-14T07:52:11.649Z,1008.7
2017-01-14T07:53:20.311Z,1008.7
2017-01-14T07:54:28.973Z,1008.75
2017-01-14T07:55:37.654Z,1008.78
2017-01-14T07:56:46.312Z,1008.81
2017-01-14T07:57:54.970Z,1008.82
2017-01-14T07:59:03.625Z,1008.83
2017-01-14T08:00:12.283Z,1008.79
2017-01-14T08:01:20.938Z,1008.8
2017-01-14T08:02:29.595Z,1008.85
2017-01-14T08:03:38.258Z,1008.79
2017-01-14T08:04:46.916Z,1008.84
2017-01-14T08:05:55.570Z,1008.81
2017-01-14T08:07:04.229Z,1008.93
2017-01-14T08:08:12.882Z,1008.88
2017-01-14T08:09:21.543Z,1008.89
2017-01-14T08:10:30.200Z,1008.94
2017-01-14T08:11:38.859Z,1008.98
2017-01-14T08:12:47.517Z,1008.92
2017-01-14T08:13:56.177Z,1008.91
2017-01-14T08:15:04.843Z,1008.99
2017-01-14T08:16:13.525Z,1008.98
2017-01-14T08:17:22.185Z,1008.97
2017-01-14T08:18:30.853Z,1009.01
2017-01-14T08:19:39.518Z,1009.08
2017-01-14T08:20:48.176Z,1009.07
2017-01-14T08:21:56.838Z,1009.1
2017-01-14T08:23:05.498Z,1009.09
2017-01-14T08:24:14.161Z,1009.15
2017-01-14T08:25:22.818Z,1009.17
2017-01-14T08:26:31.477Z,1009.15
2017-01-14T08:27:40.136Z,1009.21
2017-01-14T08:28:48.796Z,1009.23
2017-01-14T08:29:57.461Z,1009.21
2017-01-14T08:31:06.123Z,1009.21
2017-01-14T08:32:14.780Z,1009.26
2017-01-14T08:33:23.434Z,1009.23
2017-01-14T08:34:32.088Z,1009.27
2017-01-14T08:35:40.747Z,1009.24
2017-01-14T08:36:49.410Z,1009.32
2017-01-14T08:37:58.069Z,1009.26
2017-01-14T08:39:06.730Z,1009.27
2017-01-14T08:40:15.396Z,1009.29
2017-01-14T08:41:24.057Z,1009.28
2017-01-14T08:42:32.716Z,1009.35
2017-01-14T08:43:41.377Z,1009.34
2017-01-14T08:44:50.036Z,1009.29
2017-01-14T08:45:58.693Z,1009.34
2017-01-14T08:47:07.353Z,1009.39
2017-01-14T08:48:16.019Z,1009.34
2017-01-14T08:49:24.672Z,1009.38
2017-01-14T08:50:33.331Z,1009.42
2017-01-14T08:51:41.986Z,1009.43
2017-01-14T08:52:50.643Z,1009.43
2017-01-14T08:53:59.302Z,1009.4
2017-01-14T08:55:07.962Z,1009.42
2017-01-14T08:56:16.619Z,1009.4
2017-01-14T08:57:25.279Z,1009.41
2017-01-14T08:58:33.938Z,1009.49
2017-01-14T08:59:42.596Z,1009.53
2017-01-14T09:00:51.260Z,1009.56
2017-01-14T09:01:59.922Z,1009.56
2017-01-14T09:03:08.613Z,1009.52
2017-01-14T09:04:17.282Z,1009.51
2017-01-14T09:05:25.941Z,1009.52
2017-01-14T09:06:34.599Z,1009.53
2017-01-14T09:07:43.259Z,1009.51
2017-01-14T09:08:51.929Z,1009.6
2017-01-14T09:10:00.591Z,1009.61
2017-01-14T09:11:09.250Z,1009.62
2017-01-14T09:12:17.912Z,1009.56
2017-01-14T09:13:26.569Z,1009.65
2017-01-14T09:14:35.228Z,1009.6
2017-01-14T09:15:43.887Z,1009.6
2017-01-14T09:16:52.545Z,1009.62
2017-01-14T09:18:01.206Z,1009.67
2017-01-14T09:19:09.869Z,1009.63
2017-01-14T09:20:18.534Z,1009.67
2017-01-14T09:21:27.198Z,1009.63
2017-01-14T09:22:35.859Z,1009.68
2017-01-14T09:23:44.517Z,1009.63
2017-01-14T09:24:53.182Z,1009.62
2017-01-14T09:26:01.850Z,1009.67
2017-01-14T09:27:10.509Z,1009.66
2017-01-14T09:28:19.161Z,1009.72
2017-01-14T09:29:27.821Z,1009.69
2017-01-14T09:30:36.480Z,1009.75
2017-01-14T09:31:45.139Z,1009.77
2017-01-14T09:32:53.804Z,1009.74
2017-01-14T09:34:02.471Z,1009.78
2017-01-14T09:35:11.132Z,1009.8
2017-01-14T09:36:19.792Z,1009.78
2017-01-14T09:37:28.496Z,1009.8
2017-01-14T09:38:37.155Z,1009.82
2017-01-14T09:39:45.812Z,1009.82
2017-01-14T09:40:54.474Z,1009.84
2017-01-14T09:42:03.133Z,1009.83
2017-01-14T09:43:11.797Z,1009.85
2017-01-14T09:44:20.451Z,1009.9
2017-01-14T09:45:29.120Z,1009.94
2017-01-14T09:46:37.782Z,1009.92
2017-01-14T09:47:46.441Z,1009.97
2017-01-14T09:48:55.107Z,1009.99
2017-01-14T09:50:03.773Z,1009.96
2017-01-14T09:51:12.438Z,1009.96
2017-01-14T09:52:21.099Z,1009.98
2017-01-14T09:53:29.774Z,1009.95
2017-01-14T09:54:38.433Z,1009.96
2017-01-14T09:55:47.122Z,1009.95
2017-01-14T09:56:55.781Z,1009.88
2017-01-14T09:58:04.442Z,1009.92
2017-01-14T09:59:13.487Z,1009.93
2017-01-14T10:00:22.152Z,1009.89
2017-01-14T10:01:30.819Z,1009.92
2017-01-14T10:02:39.482Z,1009.88
2017-01-14T10:03:48.147Z,1009.9
2017-01-14T10:04:56.806Z,1009.88
2017-01-14T10:06:05.470Z,1009.9
2017-01-14T10:07:14.126Z,1009.91
2017-01-14T10:08:22.788Z,1009.94
2017-01-14T10:09:31.451Z,1009.92
2017-01-14T10:10:40.122Z,1009.94
2017-01-14T10:11:48.779Z,1009.93
2017-01-14T10:12:57.448Z,1009.94
2017-01-14T10:14:06.108Z,1009.88
2017-01-14T10:15:14.768Z,1009.86
2017-01-14T10:16:23.435Z,1009.86
2017-01-14T10:17:32.095Z,1009.9
2017-01-14T10:18:40.757Z,1009.93
2017-01-14T10:19:49.414Z,1009.85
2017-01-14T10:20:58.078Z,1009.91
2017-01-14T10:22:06.736Z,1009.95
2017-01-14T10:23:15.400Z,1009.92
2017-01-14T10:24:24.058Z,1009.88
2017-01-14T10:25:32.712Z,1009.87
2017-01-14T10:26:41.379Z,1009.95
2017-01-14T10:27:50.040Z,1009.85
2017-01-14T10:28:58.728Z,1009.89
2017-01-14T10:30:07.388Z,1009.97
2017-01-14T10:31:16.047Z,1009.88
2017-01-14T10:32:24.702Z,1009.84
2017-01-14T10:33:33.389Z,1009.86
2017-01-14T10:34:42.049Z,1009.86
2017-01-14T10:35:50.711Z,1009.83
2017-01-14T10:36:59.373Z,1009.86
2017-01-14T10:38:08.030Z,1009.85
2017-01-14T10:39:16.693Z,1009.75
2017-01-14T10:40:25.352Z,1009.73
2017-01-14T10:41:34.013Z,1009.76
2017-01-14T10:42:42.671Z,1009.77
2017-01-14T10:43:51.332Z,1009.76
2017-01-14T10:44:59.992Z,1009.74
2017-01-14T10:46:08.652Z,1009.72
2017-01-14T10:47:17.313Z,1009.69
2017-01-14T10:48:25.976Z,1009.69
2017-01-14T10:49:34.638Z,1009.68
2017-01-14T10:50:43.298Z,1009.74
2017-01-14T10:51:51.961Z,1009.69
2017-01-14T10:53:00.620Z,1009.74
2017-01-14T10:54:09.286Z,1009.73
2017-01-14T10:55:17.942Z,1009.69
2017-01-14T10:56:26.605Z,1009.71
2017-01-14T10:57:35.263Z,1009.73
2017-01-14T10:58:43.930Z,1009.78
2017-01-14T10:59:52.599Z,1009.66
2017-01-14T11:01:01.261Z,1009.69
2017-01-14T11:02:09.953Z,1009.67
2017-01-14T11:03:18.628Z,1009.73
2017-01-14T11:04:27.286Z,1009.8
2017-01-14T11:05:35.968Z,1009.81
2017-01-14T11:06:44.628Z,1009.83
2017-01-14T11:07:53.324Z,1009.8
2017-01-14T11:09:01.989Z,1009.69
2017-01-14T11:10:10.667Z,1009.73
2017-01-14T11:11:19.347Z,1009.75
2017-01-14T11:12:28.010Z,1009.6
2017-01-14T11:13:36.682Z,1009.64
2017-01-14T11:14:45.375Z,1009.58
2017-01-14T11:15:54.423Z,1009.63
2017-01-14T11:17:03.090Z,1009.59
2017-01-14T11:18:11.758Z,1009.56
2017-01-14T11:19:20.426Z,1009.56
2017-01-14T11:20:29.093Z,1009.55
2017-01-14T11:21:37.762Z,1009.52
2017-01-14T11:22:46.424Z,1009.46
2017-01-14T11:23:55.087Z,1009.49
2017-01-14T11:25:03.748Z,1009.53
2017-01-14T11:26:12.413Z,1009.47
2017-01-14T11:27:21.100Z,1009.49
2017-01-14T11:28:29.768Z,1009.52
2017-01-14T11:29:38.439Z,1009.46
2017-01-14T11:30:47.110Z,1009.42
2017-01-14T11:31:55.773Z,1009.46
2017-01-14T11:33:04.445Z,1009.47
2017-01-14T11:34:13.111Z,1009.44
2017-01-14T11:35:21.773Z,1009.42
2017-01-14T11:36:30.436Z,1009.36
2017-01-14T11:37:39.105Z,1009.41
2017-01-14T11:38:47.787Z,1009.29
2017-01-14T11:39:56.455Z,1009.32
2017-01-14T11:41:05.118Z,1009.3
2017-01-14T11:42:13.784Z,1009.27
2017-01-14T11:43:22.832Z,1009.3
2017-01-14T11:44:31.493Z,1009.31
2017-01-14T11:45:40.166Z,1009.26
2017-01-14T11:46:48.836Z,1009.31
2017-01-14T11:47:57.504Z,1009.31
2017-01-14T11:49:06.188Z,1009.34
2017-01-14T11:50:14.865Z,1009.27
2017-01-14T11:51:23.917Z,1009.24
2017-01-14T11:52:32.598Z,1009.25
2017-01-14T11:53:41.262Z,1009.26
2017-01-14T11:54:49.920Z,1009.26
2017-01-14T11:55:58.585Z,1009.19
2017-01-14T11:57:07.251Z,1009.17
2017-01-14T11:58:15.919Z,1009.23
2017-01-14T11:59:24.582Z,1009.21
2017-01-14T12:00:33.285Z,1009.2
2017-01-14T12:01:41.947Z,1009.18
2017-01-14T12:02:50.618Z,1009.09
2017-01-14T12:03:59.286Z,1009.16
2017-01-14T12:05:07.950Z,1009.16
2017-01-14T12:06:16.611Z,1009.08
2017-01-14T12:07:25.294Z,1009.08
2017-01-14T12:08:33.963Z,1009.06
2017-01-14T12:09:42.638Z,1009.16
2017-01-14T12:10:51.294Z,1009.09
2017-01-14T12:11:59.957Z,1009.07
2017-01-14T12:13:08.621Z,1009.03
2017-01-14T12:14:17.292Z,1009.05
2017-01-14T12:15:25.968Z,1008.97
2017-01-14T12:16:34.634Z,1009.01
2017-01-14T12:17:43.304Z,1008.97
2017-01-14T12:18:52.003Z,1008.98
2017-01-14T12:20:00.671Z,1008.99
2017-01-14T12:21:09.351Z,1008.99
2017-01-14T12:22:18.024Z,1008.97
2017-01-14T12:23:26.691Z,1008.91
2017-01-14T12:24:35.357Z,1008.96
2017-01-14T12:25:44.032Z,1008.96
2017-01-14T12:26:52.700Z,1008.99
2017-01-14T12:28:01.367Z,1008.88
2017-01-14T12:29:10.037Z,1008.81
2017-01-14T12:30:18.702Z,1008.89
2017-01-14T12:31:27.381Z,1008.85
2017-01-14T12:32:36.064Z,1008.93
2017-01-14T12:33:44.732Z,1008.89
2017-01-14T12:34:53.397Z,1008.9
2017-01-14T12:36:02.060Z,1008.84
2017-01-14T12:37:10.750Z,1008.91
2017-01-14T12:38:19.421Z,1008.88
2017-01-14T12:39:28.080Z,1008.83
2017-01-14T12:40:36.742Z,1008.82
2017-01-14T12:41:45.396Z,1008.78
2017-01-14T12:42:54.058Z,1008.81
2017-01-14T12:44:02.742Z,1008.9
2017-01-14T12:45:11.411Z,1008.83
2017-01-14T12:46:20.070Z,1008.88
2017-01-14T12:47:28.730Z,1008.84
2017-01-14T12:48:37.392Z,1008.83
2017-01-14T12:49:46.054Z,1008.84
2017-01-14T12:50:54.721Z,1008.85
2017-01-14T12:52:03.387Z,1008.92
2017-01-14T12:53:12.064Z,1008.9
2017-01-14T12:54:20.727Z,1008.92
2017-01-14T12:55:29.382Z,1008.86
2017-01-14T12:56:38.043Z,1008.87
2017-01-14T12:57:46.703Z,1008.87
2017-01-14T12:58:55.398Z,1008.91
2017-01-14T13:00:04.058Z,1008.98
2017-01-14T13:01:12.724Z,1008.86
2017-01-14T13:02:21.382Z,1008.93
2017-01-14T13:03:30.065Z,1008.98
2017-01-14T13:04:38.767Z,1008.99
2017-01-14T13:05:47.436Z,1008.92
2017-01-14T13:06:56.105Z,1008.96
2017-01-14T13:08:04.772Z,1008.88
2017-01-14T13:09:13.454Z,1008.89
2017-01-14T13:10:22.114Z,1008.88
2017-01-14T13:11:30.800Z,1008.96
2017-01-14T13:12:39.460Z,1008.93
2017-01-14T13:13:48.131Z,1008.95
2017-01-14T13:14:56.795Z,1008.94
2017-01-14T13:16:05.844Z,1008.92
2017-01-14T13:17:14.510Z,1008.92
2017-01-14T13:18:23.178Z,1008.87
2017-01-14T13:19:31.843Z,1008.88
2017-01-14T13:20:40.512Z,1008.88
2017-01-14T13:21:49.182Z,1008.94
2017-01-14T13:22:57.855Z,1008.88
2017-01-14T13:24:06.522Z,1008.85
2017-01-14T13:25:15.187Z,1008.86
2017-01-14T13:26:23.852Z,1008.93
2017-01-14T13:27:32.520Z,1008.92
2017-01-14T13:28:41.182Z,1008.92
2017-01-14T13:29:49.840Z,1008.95
2017-01-14T13:30:58.516Z,1008.89
2017-01-14T13:32:07.181Z,1008.97
2017-01-14T13:33:15.848Z,1008.9
2017-01-14T13:34:24.513Z,1008.89
2017-01-14T13:35:33.177Z,1008.91
2017-01-14T13:36:41.842Z,1008.89
2017-01-14T13:37:50.510Z,1008.87
2017-01-14T13:38:59.167Z,1008.94
2017-01-14T13:40:07.827Z,1008.89
2017-01-14T13:41:16.487Z,1008.96
2017-01-14T13:42:25.150Z,1008.98
2017-01-14T13:43:33.818Z,1008.95
2017-01-14T13:44:42.485Z,1009.02
2017-01-14T13:45:51.144Z,1008.93
2017-01-14T13:46:59.805Z,1008.92
2017-01-14T13:48:08.465Z,1009
2017-01-14T13:49:17.136Z,1008.96
2017-01-14T13:50:25.802Z,1008.94
2017-01-14T13:51:34.851Z,1008.97
2017-01-14T13:52:43.520Z,1008.96
2017-01-14T13:53:52.182Z,1009.06